Time;durP1;ratioP1;P1;durP2;ratioP2;P2;SDS_P1;SDS_P2;PMS_P1;PMS_P2;Temp;Humidity;BMP_temperature;BMP_pressure;BME280_temperature;BME280_humidity;BME280_pressure;Samples;Min_cycle;Max_cycle;Signal;HPM_P1;HPM_P2
2023/03/21 00:00:25;;;;;;;78.00;20.77;;;8.60;99.90;;;;;;6277416;22;20023;-80
2023/03/21 00:02:51;;;;;;;72.32;19.92;;;8.60;99.90;;;;;;6250303;22;20019;-80
2023/03/21 00:05:19;;;;;;;86.28;22.05;;;8.70;99.90;;;;;;6250163;22;20019;-80
2023/03/21 00:07:45;;;;;;;82.15;21.48;;;8.60;99.90;;;;;;6277281;22;20435;-81
2023/03/21 00:10:11;;;;;;;74.10;21.85;;;8.60;99.90;;;;;;6250259;22;20116;-80
2023/03/21 00:12:37;;;;;;;74.95;20.73;;;8.60;99.90;;;;;;6277574;22;20015;-80
2023/03/21 00:15:07;;;;;;;77.03;21.88;;;8.70;99.90;;;;;;6250215;22;20382;-80
2023/03/21 00:17:34;;;;;;;73.70;20.73;;;8.60;99.90;;;;;;6250182;22;20050;-81
2023/03/21 00:20:05;;;;;;;76.30;23.23;;;8.60;99.90;;;;;;6277208;22;20080;-81
2023/03/21 00:22:34;;;;;;;69.15;20.58;;;8.60;99.90;;;;;;6277603;22;20053;-80
2023/03/21 00:24:59;;;;;;;75.43;20.38;;;8.70;99.90;;;;;;6277497;22;20022;-81
2023/03/21 00:27:26;;;;;;;70.13;19.00;;;8.60;99.90;;;;;;6277295;22;20086;-80
2023/03/21 00:29:52;;;;;;;74.80;21.17;;;8.60;99.90;;;;;;6250023;22;20012;-81
2023/03/21 00:32:20;;;;;;;61.85;19.23;;;8.60;99.90;;;;;;6277290;22;20012;-81
2023/03/21 00:34:46;;;;;;;63.45;18.50;;;8.60;99.90;;;;;;6249999;22;20012;-80
2023/03/21 00:37:15;;;;;;;56.20;17.73;;;8.60;99.90;;;;;;6249901;22;20069;-81
2023/03/21 00:39:42;;;;;;;61.25;18.38;;;8.60;99.90;;;;;;6277040;22;20016;-81
2023/03/21 00:42:08;;;;;;;63.90;19.20;;;8.60;99.90;;;;;;6249769;22;20453;-81
2023/03/21 00:44:36;;;;;;;59.35;17.17;;;8.60;99.90;;;;;;6250014;22;20023;-81
2023/03/21 00:47:02;;;;;;;52.92;17.52;;;8.60;99.90;;;;;;6277326;22;20027;-80
2023/03/21 00:49:32;;;;;;;49.90;15.93;;;8.60;99.90;;;;;;6249920;22;20094;-81
2023/03/21 00:51:59;;;;;;;55.78;17.20;;;8.60;99.90;;;;;;6250016;22;20022;-80
2023/03/21 00:54:25;;;;;;;56.28;17.27;;;8.60;99.90;;;;;;6249943;22;20020;-81
2023/03/21 00:56:51;;;;;;;62.55;17.85;;;8.60;99.90;;;;;;6249580;22;20538;-80
2023/03/21 00:59:17;;;;;;;64.03;17.25;;;8.60;99.90;;;;;;6277280;22;20012;-80
2023/03/21 01:01:45;;;;;;;64.85;18.25;;;8.60;99.90;;;;;;6249906;22;20016;-81
2023/03/21 01:04:13;;;;;;;71.70;18.10;;;8.60;99.90;;;;;;6249761;22;20016;-81
2023/03/21 01:06:41;;;;;;;78.93;19.30;;;8.60;99.90;;;;;;6249801;22;20321;-81
2023/03/21 01:09:18;;;;;;;83.93;19.15;;;8.70;99.90;;;;;;6249820;22;20012;-80
2023/03/21 01:11:44;;;;;;;84.38;19.75;;;8.60;99.90;;;;;;6249858;22;20016;-80
2023/03/21 01:14:12;;;;;;;83.20;19.90;;;8.60;99.90;;;;;;6249852;22;20091;-81
2023/03/21 01:16:38;;;;;;;99.32;21.98;;;8.60;99.90;;;;;;6277269;22;20022;-81
2023/03/21 01:19:06;;;;;;;112.28;23.95;;;8.60;99.90;;;;;;6249838;22;20094;-81
2023/03/21 01:21:32;;;;;;;109.95;24.77;;;8.60;99.90;;;;;;6249458;22;20407;-81
2023/03/21 01:23:58;;;;;;;124.57;24.15;;;8.60;99.90;;;;;;6249389;22;20012;-81
2023/03/21 01:26:24;;;;;;;113.47;26.17;;;8.60;99.90;;;;;;6277187;22;20393;-81
2023/03/21 01:28:52;;;;;;;121.75;25.70;;;8.60;99.90;;;;;;6249811;22;20339;-81
2023/03/21 01:31:18;;;;;;;125.07;28.83;;;8.70;99.90;;;;;;6276806;22;20501;-81
2023/03/21 01:33:44;;;;;;;131.57;27.55;;;8.60;99.90;;;;;;6249730;22;20047;-81
2023/03/21 01:36:16;;;;;;;131.75;28.67;;;8.70;99.90;;;;;;6249659;22;20043;-81
2023/03/21 01:38:42;;;;;;;151.55;32.92;;;8.60;99.90;;;;;;6276866;22;20203;-81
2023/03/21 01:41:35;;;;;;;135.43;30.63;;;8.60;99.90;;;;;;6276771;22;20383;-80
2023/03/21 01:44:00;;;;;;;134.00;29.98;;;8.70;99.90;;;;;;6249395;22;20321;-80
2023/03/21 01:46:41;;;;;;;116.45;27.90;;;8.70;99.90;;;;;;6278938;22;20015;-80
2023/03/21 01:49:33;;;;;;;117.72;27.83;;;8.70;99.90;;;;;;6279166;22;20020;-80
2023/03/21 01:52:12;;;;;;;106.57;25.17;;;8.60;99.90;;;;;;6279068;22;20017;-80
2023/03/21 01:54:39;;;;;;;104.93;25.77;;;8.60;99.90;;;;;;6251474;22;20016;-80
2023/03/21 01:57:15;;;;;;;106.57;24.33;;;8.60;99.90;;;;;;6279310;22;20026;-80
2023/03/21 01:59:50;;;;;;;93.88;23.00;;;8.60;99.90;;;;;;6278574;22;20463;-80
2023/03/21 02:02:22;;;;;;;90.25;21.67;;;8.60;99.90;;;;;;6251535;22;20012;-80
2023/03/21 02:04:49;;;;;;;76.32;22.80;;;8.60;99.90;;;;;;6278550;22;20011;-80
2023/03/21 02:07:23;;;;;;;98.90;26.10;;;8.60;99.90;;;;;;6251440;22;20097;-80
2023/03/21 02:09:49;;;;;;;95.45;24.77;;;8.60;99.90;;;;;;6251556;22;20012;-80
2023/03/21 02:12:17;;;;;;;116.10;29.02;;;8.70;99.90;;;;;;6278560;22;20027;-80
2023/03/21 02:14:46;;;;;;;127.60;28.90;;;8.70;99.90;;;;;;6251334;22;20412;-80
2023/03/21 02:17:23;;;;;;;151.52;32.30;;;8.60;99.90;;;;;;6278754;22;20031;-80
2023/03/21 02:20:41;;;;;;;156.45;33.15;;;8.60;99.90;;;;;;6251444;22;20015;-80
2023/03/21 02:23:46;;;;;;;149.02;32.17;;;8.60;99.90;;;;;;6251391;22;20065;-80
2023/03/21 02:26:43;;;;;;;135.82;31.85;;;8.60;99.90;;;;;;6277349;22;20069;-80
2023/03/21 02:29:31;;;;;;;163.18;34.05;;;8.70;99.90;;;;;;6251187;22;20015;-80
2023/03/21 02:32:09;;;;;;;165.35;35.92;;;8.60;99.90;;;;;;6278446;22;20045;-80
2023/03/21 02:35:05;;;;;;;187.60;38.30;;;8.60;99.90;;;;;;6251198;22;20069;-80
2023/03/21 02:37:47;;;;;;;182.18;40.08;;;8.70;99.90;;;;;;6278634;22;20012;-80
2023/03/21 02:40:23;;;;;;;190.43;39.33;;;8.70;99.90;;;;;;6251169;22;20047;-80
2023/03/21 02:43:14;;;;;;;172.50;35.35;;;8.70;99.90;;;;;;6250875;22;20077;-80
2023/03/21 02:46:09;;;;;;;183.57;37.08;;;8.60;99.90;;;;;;6278472;22;20077;-80
2023/03/21 02:49:05;;;;;;;180.25;37.72;;;8.60;99.90;;;;;;6229948;22;20020;-80
2023/03/21 02:51:32;;;;;;;173.48;36.72;;;8.70;99.90;;;;;;6231369;22;20343;-80
2023/03/21 02:54:02;;;;;;;172.80;36.80;;;8.70;99.90;;;;;;6250929;22;20331;-80
2023/03/21 02:56:30;;;;;;;138.00;34.95;;;8.60;99.90;;;;;;6251316;22;20019;-80
2023/03/21 02:58:56;;;;;;;157.75;34.55;;;8.70;99.90;;;;;;6278215;22;20012;-80
2023/03/21 03:01:24;;;;;;;141.77;32.83;;;8.60;99.90;;;;;;6250820;22;20540;-80
2023/03/21 03:03:50;;;;;;;130.23;32.35;;;8.70;99.90;;;;;;6278041;22;20062;-80
2023/03/21 03:06:26;;;;;;;143.80;33.17;;;8.70;99.90;;;;;;6278085;22;20019;-80
2023/03/21 03:09:19;;;;;;;120.65;30.17;;;8.60;99.90;;;;;;6278394;22;20168;-80
2023/03/21 03:11:49;;;;;;;99.82;25.73;;;8.70;99.90;;;;;;6278279;22;20024;-80
2023/03/21 03:14:29;;;;;;;110.47;26.48;;;8.60;99.90;;;;;;6250773;22;20011;-80
2023/03/21 03:17:14;;;;;;;97.75;24.90;;;8.60;99.90;;;;;;6250839;22;20097;-80
2023/03/21 03:20:11;;;;;;;84.53;24.42;;;8.60;99.90;;;;;;6250778;22;20023;-80
2023/03/21 03:22:46;;;;;;;98.25;25.10;;;8.60;99.90;;;;;;6250789;22;20466;-80
2023/03/21 03:25:15;;;;;;;91.32;23.63;;;8.60;99.90;;;;;;6250763;22;20069;-80
2023/03/21 03:27:43;;;;;;;93.93;25.13;;;8.70;99.90;;;;;;6250869;22;20054;-80
2023/03/21 03:30:10;;;;;;;96.25;25.08;;;8.60;99.90;;;;;;6278139;22;20018;-80
2023/03/21 03:32:46;;;;;;;97.93;25.60;;;8.70;99.90;;;;;;6250612;22;20348;-80
2023/03/21 03:35:18;;;;;;;103.40;25.42;;;8.60;99.90;;;;;;6278204;22;20012;-80
2023/03/21 03:37:52;;;;;;;111.35;27.25;;;8.60;99.90;;;;;;6277743;22;20026;-80
2023/03/21 03:40:53;;;;;;;118.45;29.80;;;8.70;99.90;;;;;;6251397;22;20089;-80
2023/03/21 03:43:25;;;;;;;112.40;26.05;;;8.60;99.90;;;;;;6251125;22;20030;-80
2023/03/21 03:45:58;;;;;;;114.03;26.42;;;8.60;99.90;;;;;;6277872;22;20030;-80
2023/03/21 03:48:45;;;;;;;102.18;26.05;;;8.70;99.90;;;;;;6277918;22;20108;-80
2023/03/21 03:51:34;;;;;;;106.28;26.67;;;8.60;99.90;;;;;;6277569;22;20047;-80
2023/03/21 03:54:06;;;;;;;86.45;24.45;;;8.60;99.90;;;;;;6276813;22;20016;-80
2023/03/21 03:56:32;;;;;;;95.35;22.25;;;8.60;99.90;;;;;;6250555;22;20118;-80
2023/03/21 03:59:00;;;;;;;100.40;23.40;;;8.60;99.90;;;;;;6277783;22;20031;-80
2023/03/21 04:01:26;;;;;;;87.70;22.33;;;8.60;99.90;;;;;;6277452;22;20024;-80
2023/03/21 04:03:52;;;;;;;80.13;18.70;;;8.70;99.90;;;;;;6277741;22;20061;-80
2023/03/21 04:06:18;;;;;;;70.18;18.65;;;8.60;99.90;;;;;;6250145;22;20087;-80
2023/03/21 04:08:44;;;;;;;78.05;20.25;;;8.60;99.90;;;;;;6277333;22;20011;-80
2023/03/21 04:11:13;;;;;;;84.57;20.13;;;8.60;99.90;;;;;;6277136;22;20419;-80
2023/03/21 04:13:38;;;;;;;79.00;20.02;;;8.60;99.90;;;;;;6277679;22;20015;-80
2023/03/21 04:16:04;;;;;;;71.07;17.50;;;8.60;99.90;;;;;;6250230;22;20019;-80
2023/03/21 04:18:31;;;;;;;65.38;17.83;;;8.60;99.90;;;;;;6277574;22;20462;-80
2023/03/21 04:20:56;;;;;;;67.70;16.10;;;8.70;99.90;;;;;;6277232;22;20031;-80
2023/03/21 04:23:22;;;;;;;71.05;18.60;;;8.60;99.90;;;;;;6250094;22;20020;-80
2023/03/21 04:25:49;;;;;;;79.95;18.17;;;8.60;99.90;;;;;;6250015;22;20019;-80
2023/03/21 04:28:17;;;;;;;78.75;20.23;;;8.60;99.90;;;;;;6250067;22;20016;-80
2023/03/21 04:30:44;;;;;;;72.40;19.20;;;8.60;99.90;;;;;;6277726;22;20034;-80
2023/03/21 04:33:10;;;;;;;79.20;18.85;;;8.70;99.90;;;;;;6277157;22;20020;-80
2023/03/21 04:35:37;;;;;;;90.88;19.40;;;8.60;99.90;;;;;;6250133;22;20138;-80
2023/03/21 04:38:02;;;;;;;70.90;20.45;;;8.70;99.90;;;;;;6250500;22;20023;-80
2023/03/21 04:40:28;;;;;;;60.90;16.98;;;8.70;99.90;;;;;;6250158;22;20340;-80
2023/03/21 04:42:56;;;;;;;83.05;21.17;;;8.70;99.90;;;;;;6249809;22;20095;-80
2023/03/21 04:45:22;;;;;;;76.53;18.17;;;8.60;99.90;;;;;;6249808;22;20154;-80
2023/03/21 04:47:47;;;;;;;75.65;18.55;;;8.70;99.90;;;;;;6276990;22;20049;-80
2023/03/21 04:50:14;;;;;;;96.22;21.77;;;8.70;99.90;;;;;;6277359;22;20020;-80
2023/03/21 04:52:40;;;;;;;88.38;21.40;;;8.70;99.90;;;;;;6249862;22;20012;-80
2023/03/21 04:55:08;;;;;;;79.63;20.25;;;8.60;99.90;;;;;;6250008;22;20030;-80
2023/03/21 04:57:35;;;;;;;94.72;20.65;;;8.60;99.90;;;;;;6249857;22;20042;-80
2023/03/21 05:00:05;;;;;;;105.50;22.00;;;8.70;99.90;;;;;;6276940;22;20481;-80
2023/03/21 05:02:33;;;;;;;93.13;21.60;;;8.70;99.90;;;;;;6249999;22;20016;-80
2023/03/21 05:04:59;;;;;;;85.35;18.95;;;8.70;99.90;;;;;;6277192;22;20022;-81
2023/03/21 05:07:25;;;;;;;87.47;19.40;;;8.70;99.90;;;;;;6249903;22;20023;-81
2023/03/21 05:09:51;;;;;;;94.68;19.48;;;8.60;99.90;;;;;;6249912;22;20030;-79
2023/03/21 05:12:18;;;;;;;89.07;19.95;;;8.70;99.90;;;;;;6276924;22;20142;-80
2023/03/21 05:14:44;;;;;;;91.05;21.00;;;8.70;99.90;;;;;;6249785;22;20077;-80
2023/03/21 05:17:14;;;;;;;91.78;18.55;;;8.70;99.90;;;;;;6249837;22;20382;-80
2023/03/21 05:19:40;;;;;;;86.07;17.80;;;8.70;99.90;;;;;;6279111;22;20026;-81
2023/03/21 05:22:08;;;;;;;87.45;18.75;;;8.70;99.90;;;;;;6251914;22;20011;-81
2023/03/21 05:24:38;;;;;;;93.35;18.40;;;8.70;99.90;;;;;;6278775;22;20079;-81
2023/03/21 05:27:04;;;;;;;91.78;20.05;;;8.70;99.90;;;;;;6279214;22;20020;-80
2023/03/21 05:29:31;;;;;;;88.90;18.42;;;8.70;99.90;;;;;;6251871;22;20113;-81
2023/03/21 05:31:57;;;;;;;93.70;19.23;;;8.70;99.90;;;;;;6251851;22;20344;-81
2023/03/21 05:34:23;;;;;;;82.95;18.10;;;8.70;99.90;;;;;;6251841;22;20024;-81
2023/03/21 05:36:49;;;;;;;85.40;18.15;;;8.70;99.90;;;;;;6251649;22;20509;-81
2023/03/21 05:39:15;;;;;;;80.88;18.88;;;8.70;99.90;;;;;;6278668;22;20443;-80
2023/03/21 05:41:42;;;;;;;77.47;16.75;;;8.70;99.90;;;;;;6251334;22;20344;-82
2023/03/21 05:44:08;;;;;;;74.03;17.30;;;8.70;99.90;;;;;;6278403;22;20463;-81
2023/03/21 05:46:33;;;;;;;75.07;17.98;;;8.70;99.90;;;;;;6250543;22;20016;-81
2023/03/21 05:48:59;;;;;;;68.00;16.23;;;8.70;99.90;;;;;;6250900;22;20027;-81
2023/03/21 05:51:25;;;;;;;59.08;16.08;;;8.80;99.90;;;;;;6278820;22;20379;-81
2023/03/21 05:53:51;;;;;;;67.80;15.38;;;8.70;99.90;;;;;;6278624;22;20386;-81
2023/03/21 05:56:16;;;;;;;63.20;14.27;;;8.70;99.90;;;;;;6251454;22;20019;-81
2023/03/21 05:58:42;;;;;;;52.28;13.00;;;8.70;99.90;;;;;;6278837;22;20018;-81
2023/03/21 06:01:08;;;;;;;48.35;11.15;;;8.70;99.90;;;;;;6278840;22;20427;-81
2023/03/21 06:03:33;;;;;;;47.78;11.90;;;8.70;99.90;;;;;;6278936;22;20355;-80
2023/03/21 06:05:59;;;;;;;49.25;13.30;;;8.70;99.90;;;;;;6278371;22;20016;-80
2023/03/21 06:08:25;;;;;;;36.72;11.75;;;8.80;99.90;;;;;;6251346;22;20047;-81
2023/03/21 06:10:51;;;;;;;50.53;12.43;;;8.70;99.90;;;;;;6251431;22;20054;-80
2023/03/21 06:13:16;;;;;;;41.75;13.32;;;8.70;99.90;;;;;;6251361;22;20339;-81
2023/03/21 06:15:42;;;;;;;41.55;13.35;;;8.80;99.90;;;;;;6251348;22;20020;-80
2023/03/21 06:18:07;;;;;;;38.92;13.05;;;8.70;99.90;;;;;;6251197;22;20020;-81
2023/03/21 06:20:33;;;;;;;46.33;12.80;;;8.70;99.90;;;;;;6251288;22;20019;-81
2023/03/21 06:22:59;;;;;;;37.20;10.85;;;8.80;99.90;;;;;;6278650;22;20020;-81
2023/03/21 06:25:24;;;;;;;43.30;12.48;;;8.80;99.90;;;;;;6251141;22;20031;-80
2023/03/21 06:27:50;;;;;;;40.20;12.07;;;8.70;99.90;;;;;;6278273;22;20038;-81
2023/03/21 06:30:17;;;;;;;43.47;13.25;;;8.70;99.90;;;;;;6250782;22;20047;-81
2023/03/21 06:32:42;;;;;;;40.53;12.40;;;8.80;99.90;;;;;;6278545;22;20024;-81
2023/03/21 06:35:08;;;;;;;44.33;12.98;;;8.70;99.90;;;;;;6251087;22;20531;-81
2023/03/21 06:37:34;;;;;;;48.08;12.65;;;8.70;99.90;;;;;;6251100;22;20095;-81
2023/03/21 06:39:59;;;;;;;43.88;13.60;;;8.80;99.90;;;;;;6251174;22;20011;-81
2023/03/21 06:42:28;;;;;;;48.28;14.43;;;8.80;99.90;;;;;;6277890;22;20065;-81
2023/03/21 06:44:54;;;;;;;47.53;13.55;;;8.80;99.90;;;;;;6278331;22;20019;-81
2023/03/21 06:47:19;;;;;;;54.67;14.23;;;8.80;99.90;;;;;;6278160;22;20026;-80
2023/03/21 06:49:45;;;;;;;44.55;13.77;;;8.80;99.90;;;;;;6278091;22;20026;-81
2023/03/21 06:52:10;;;;;;;45.80;14.20;;;8.80;99.90;;;;;;6251046;22;20047;-81
2023/03/21 06:54:37;;;;;;;46.58;14.15;;;8.80;99.90;;;;;;6251023;22;20091;-80
2023/03/21 06:57:02;;;;;;;44.70;13.88;;;8.90;99.90;;;;;;6277929;22;20382;-81
2023/03/21 06:59:28;;;;;;;48.95;13.23;;;8.90;99.90;;;;;;6250759;22;20428;-81
2023/03/21 07:01:53;;;;;;;46.72;13.38;;;8.90;99.90;;;;;;6250904;22;20414;-80
2023/03/21 07:04:19;;;;;;;38.33;11.93;;;8.90;99.90;;;;;;6250826;22;20450;-80
2023/03/21 07:06:45;;;;;;;44.97;12.15;;;8.90;99.90;;;;;;6250900;22;20019;-81
2023/03/21 07:09:11;;;;;;;42.92;12.25;;;8.90;99.90;;;;;;6277810;22;20355;-81
2023/03/21 07:11:36;;;;;;;40.50;12.52;;;8.90;99.90;;;;;;6250704;22;20088;-80
2023/03/21 07:14:03;;;;;;;35.97;12.00;;;8.90;99.90;;;;;;6250725;22;20084;-81
2023/03/21 07:16:29;;;;;;;42.10;11.80;;;9.00;99.90;;;;;;6277996;22;20011;-80
2023/03/21 07:18:55;;;;;;;34.03;11.65;;;8.90;99.90;;;;;;6250626;22;20454;-80
2023/03/21 07:21:21;;;;;;;34.30;11.57;;;9.00;99.90;;;;;;6250598;22;20026;-80
2023/03/21 07:23:49;;;;;;;35.47;10.48;;;9.00;99.90;;;;;;6277815;22;20102;-81
2023/03/21 07:26:14;;;;;;;35.28;10.80;;;9.00;99.90;;;;;;6277996;22;20019;-81
2023/03/21 07:28:40;;;;;;;35.38;10.65;;;9.00;99.90;;;;;;6250567;22;20047;-81
2023/03/21 07:31:07;;;;;;;35.33;11.07;;;9.00;99.90;;;;;;6278059;22;20415;-81
2023/03/21 07:33:32;;;;;;;37.15;12.75;;;9.00;99.90;;;;;;6250584;22;20146;-81
2023/03/21 07:35:59;;;;;;;35.83;13.20;;;9.00;99.90;;;;;;6250595;22;20058;-81
2023/03/21 07:38:26;;;;;;;35.58;11.85;;;9.00;99.90;;;;;;6277556;22;20023;-81
2023/03/21 07:40:52;;;;;;;37.72;11.93;;;9.00;99.90;;;;;;6250535;22;20055;-80
2023/03/21 07:43:18;;;;;;;37.70;13.02;;;9.00;99.90;;;;;;6249937;22;20019;-80
2023/03/21 07:45:45;;;;;;;34.72;12.32;;;9.00;99.90;;;;;;6250366;22;20019;-81
2023/03/21 07:48:13;;;;;;;34.85;12.50;;;9.00;99.90;;;;;;6250358;22;20015;-81
2023/03/21 07:50:39;;;;;;;34.30;12.02;;;9.00;99.90;;;;;;6250462;22;20016;-82
2023/03/21 07:53:06;;;;;;;39.53;12.68;;;9.10;99.90;;;;;;6249089;22;20011;-82
2023/03/21 07:55:33;;;;;;;39.42;12.07;;;9.10;99.90;;;;;;6277533;22;20020;-81
2023/03/21 07:58:01;;;;;;;33.00;10.93;;;9.10;99.90;;;;;;6277450;22;20446;-82
2023/03/21 08:00:27;;;;;;;32.45;10.90;;;9.10;99.90;;;;;;6250282;22;20050;-82
2023/03/21 08:02:54;;;;;;;29.40;10.15;;;9.10;99.90;;;;;;6276521;22;20020;-81
2023/03/21 08:05:21;;;;;;;34.22;11.00;;;9.10;99.90;;;;;;6249866;22;20473;-81
2023/03/21 08:07:48;;;;;;;29.45;11.35;;;9.10;99.90;;;;;;6250090;22;20080;-81
2023/03/21 08:10:13;;;;;;;30.20;11.77;;;9.10;99.90;;;;;;6249919;22;20384;-82
2023/03/21 08:12:39;;;;;;;29.13;11.68;;;9.10;99.90;;;;;;6249181;22;20062;-82
2023/03/21 08:15:21;;;;;;;33.65;12.18;;;9.10;99.90;;;;;;5164887;27;20329;-81
2023/03/21 08:17:46;;;;;;;35.83;12.68;;;9.20;99.90;;;;;;5133860;27;20058;-80
2023/03/21 08:20:15;;;;;;;37.55;13.32;;;9.20;99.90;;;;;;5133997;27;20073;-81
2023/03/21 08:22:42;;;;;;;36.70;12.88;;;9.20;99.90;;;;;;5134052;27;20043;-81
2023/03/21 08:25:12;;;;;;;34.47;13.07;;;9.20;99.90;;;;;;5152162;27;20423;-81
2023/03/21 08:27:37;;;;;;;36.28;13.25;;;9.20;99.90;;;;;;5133749;27;20039;-82
2023/03/21 08:30:03;;;;;;;34.47;13.25;;;9.20;99.90;;;;;;5133571;27;20043;-80
2023/03/21 08:32:29;;;;;;;35.20;13.35;;;9.20;99.90;;;;;;5133797;27;20050;-84
2023/03/21 08:34:59;;;;;;;33.03;12.32;;;9.30;99.90;;;;;;5132783;27;20134;-84
2023/03/21 08:37:25;;;;;;;33.13;12.30;;;9.30;99.90;;;;;;5133461;27;20104;-84
2023/03/21 08:39:51;;;;;;;32.28;10.98;;;9.20;99.90;;;;;;5151900;27;20055;-83
2023/03/21 08:42:17;;;;;;;28.88;11.95;;;9.20;99.90;;;;;;5151952;27;20043;-83
2023/03/21 08:44:43;;;;;;;27.15;11.48;;;9.20;99.90;;;;;;5133273;27;20043;-82
2023/03/21 08:47:09;;;;;;;29.10;11.80;;;9.30;99.90;;;;;;5133457;27;20039;-82
2023/03/21 08:49:35;;;;;;;24.73;11.45;;;9.20;99.90;;;;;;5151415;27;20082;-82
2023/03/21 08:52:01;;;;;;;25.40;10.05;;;9.30;99.90;;;;;;5133153;27;20405;-85
2023/03/21 08:54:27;;;;;;;26.52;10.55;;;9.30;99.90;;;;;;5132908;27;20054;-83
2023/03/21 08:56:52;;;;;;;27.75;9.70;;;9.30;99.90;;;;;;5133200;27;20500;-83
2023/03/21 08:59:18;;;;;;;28.33;11.90;;;9.20;99.90;;;;;;5151871;27;20034;-83
2023/03/21 09:01:44;;;;;;;23.92;11.48;;;9.30;99.90;;;;;;5132971;27;20500;-83
2023/03/21 09:04:10;;;;;;;26.50;12.55;;;9.30;99.90;;;;;;5133200;27;20069;-82
2023/03/21 09:06:37;;;;;;;27.48;11.70;;;9.30;99.90;;;;;;5151673;27;20043;-84
2023/03/21 09:09:06;;;;;;;31.17;13.18;;;9.30;99.90;;;;;;5151407;27;20424;-82
2023/03/21 09:11:32;;;;;;;29.48;13.15;;;9.30;99.90;;;;;;5151176;27;20047;-82
2023/03/21 09:14:00;;;;;;;31.70;14.82;;;9.40;99.90;;;;;;5151115;27;20083;-82
2023/03/21 09:16:26;;;;;;;32.15;14.65;;;9.30;99.90;;;;;;5132624;27;20039;-84
2023/03/21 09:18:54;;;;;;;33.42;14.55;;;9.40;99.90;;;;;;5132551;27;20095;-83
2023/03/21 09:21:21;;;;;;;35.05;16.35;;;9.30;99.90;;;;;;5150914;27;20075;-83
2023/03/21 09:23:51;;;;;;;41.85;17.42;;;9.40;99.90;;;;;;5132569;27;20047;-82
2023/03/21 09:26:18;;;;;;;40.97;18.33;;;9.30;99.90;;;;;;5138802;27;20051;-83
2023/03/21 09:28:45;;;;;;;39.70;18.27;;;9.40;99.90;;;;;;5153164;27;20036;-83
2023/03/21 09:31:15;;;;;;;41.28;20.05;;;9.40;99.90;;;;;;5118776;27;20076;-84
2023/03/21 09:33:42;;;;;;;42.83;20.35;;;9.40;99.90;;;;;;5136578;27;20482;-83
2023/03/21 09:36:13;;;;;;;46.60;22.92;;;9.50;99.90;;;;;;5118798;27;20051;-83
2023/03/21 09:38:46;;;;;;;50.92;21.98;;;9.50;99.90;;;;;;5118626;27;20050;-83
2023/03/21 09:41:36;;;;;;;48.50;21.02;;;9.50;99.90;;;;;;5118520;27;20086;-83
2023/03/21 09:44:42;;;;;;;44.20;21.27;;;9.50;99.90;;;;;;5137182;27;20032;-83
2023/03/21 09:47:33;;;;;;;49.17;22.77;;;9.40;99.90;;;;;;5104695;27;20138;-81
2023/03/21 09:50:02;;;;;;;51.53;22.35;;;9.50;99.90;;;;;;5136630;27;20485;-82
2023/03/21 09:52:52;;;;;;;52.38;22.00;;;9.50;99.90;;;;;;5136624;27;20439;-82
2023/03/21 09:55:22;;;;;;;52.10;23.40;;;9.60;99.90;;;;;;5118073;27;20047;-82
2023/03/21 09:57:55;;;;;;;49.13;24.13;;;9.60;99.90;;;;;;5118458;27;20039;-84
2023/03/21 10:00:24;;;;;;;;;;;9.50;99.90;;;;;;5118513;27;20077;-84
2023/03/21 10:02:53;;;;;;;49.33;22.33;;;9.50;99.90;;;;;;5136465;27;19999;-83
2023/03/21 10:05:23;;;;;;;46.33;23.17;;;9.50;99.90;;;;;;5118048;27;20474;-84
2023/03/21 10:07:55;;;;;;;49.50;23.65;;;9.50;99.90;;;;;;5117854;27;20067;-84
2023/03/21 10:10:27;;;;;;;48.20;23.48;;;9.40;99.90;;;;;;5136460;27;20043;-85
2023/03/21 10:12:57;;;;;;;45.13;23.00;;;9.40;99.90;;;;;;5136285;27;20039;-83
2023/03/21 10:15:27;;;;;;;53.58;22.98;;;9.50;99.90;;;;;;5136308;27;20511;-84
2023/03/21 10:18:00;;;;;;;40.03;21.45;;;9.50;99.90;;;;;;5118096;27;20035;-84
2023/03/21 10:20:36;;;;;;;45.08;22.10;;;9.40;99.90;;;;;;5136021;27;20047;-85
2023/03/21 10:23:11;;;;;;;49.33;22.60;;;9.50;99.90;;;;;;5118004;27;20043;-81
2023/03/21 10:25:45;;;;;;;53.63;23.98;;;9.50;99.90;;;;;;5136097;27;20077;-81
2023/03/21 10:28:21;;;;;;;48.83;23.98;;;9.40;99.90;;;;;;5135917;27;20470;-80
2023/03/21 10:30:53;;;;;;;52.65;24.20;;;9.50;99.90;;;;;;5117629;27;20039;-80
2023/03/21 10:33:41;;;;;;;43.70;23.58;;;9.50;99.90;;;;;;5117616;27;20047;-80
2023/03/21 10:36:16;;;;;;;49.10;23.30;;;9.60;99.90;;;;;;5135356;27;20043;-80
2023/03/21 10:38:47;;;;;;;44.60;21.58;;;9.60;99.90;;;;;;5135504;27;20039;-80
2023/03/21 10:41:13;;;;;;;43.65;22.60;;;9.70;99.90;;;;;;5136083;27;20035;-83
2023/03/21 10:43:40;;;;;;;49.38;25.40;;;9.70;99.90;;;;;;5135511;27;20796;-80
2023/03/21 10:46:26;;;;;;;46.70;24.63;;;9.70;99.90;;;;;;5117493;27;20394;-81
2023/03/21 10:48:52;;;;;;;51.90;22.95;;;9.80;99.90;;;;;;5135043;27;20051;-81
2023/03/21 10:51:28;;;;;;;45.50;22.52;;;9.90;99.90;;;;;;5117169;27;20493;-82
2023/03/21 10:53:59;;;;;;;46.45;21.48;;;10.00;99.90;;;;;;5117027;27;20039;-81
2023/03/21 10:56:31;;;;;;;41.45;19.92;;;9.90;99.90;;;;;;5117002;27;20092;-80
2023/03/21 10:58:59;;;;;;;46.38;18.45;;;10.10;99.90;;;;;;5116812;27;20538;-80
2023/03/21 11:01:35;;;;;;;40.20;17.95;;;10.10;99.90;;;;;;5116978;27;20087;-84
2023/03/21 11:04:19;;;;;;;36.40;19.10;;;10.10;99.90;;;;;;5117250;27;20086;-81
2023/03/21 11:06:58;;;;;;;35.88;18.58;;;10.10;99.90;;;;;;5116779;27;20039;-87
2023/03/21 11:09:41;;;;;;;37.13;17.88;;;10.10;99.90;;;;;;5117051;27;20039;-81
2023/03/21 11:12:27;;;;;;;38.42;19.02;;;10.20;99.90;;;;;;5117120;27;20043;-81
2023/03/21 11:14:53;;;;;;;33.55;16.85;;;10.30;99.90;;;;;;5116472;27;20053;-82
2023/03/21 11:17:28;;;;;;;39.03;17.27;;;10.30;99.90;;;;;;5116395;27;20048;-83
2023/03/21 11:19:58;;;;;;;37.72;18.10;;;10.40;99.90;;;;;;5116606;27;20043;-79
2023/03/21 11:22:27;;;;;;;31.35;17.23;;;10.30;99.90;;;;;;5134847;27;20494;-81
2023/03/21 11:24:58;;;;;;;33.40;17.77;;;10.40;99.90;;;;;;5116412;27;20047;-81
2023/03/21 11:27:30;;;;;;;38.53;17.67;;;10.40;99.90;;;;;;5116752;27;20103;-82
2023/03/21 11:29:58;;;;;;;32.00;17.13;;;10.40;99.90;;;;;;5134455;27;20054;-82
2023/03/21 11:32:33;;;;;;;34.67;18.80;;;10.60;99.90;;;;;;5116653;27;20047;-81
2023/03/21 11:35:14;;;;;;;39.10;21.25;;;10.60;99.90;;;;;;5116220;27;20043;-81
2023/03/21 11:37:54;;;;;;;44.95;28.48;;;10.60;99.90;;;;;;5116757;28;20401;-82
2023/03/21 11:40:25;;;;;;;44.15;26.27;;;10.70;99.90;;;;;;5116396;27;20111;-82
2023/03/21 11:43:01;;;;;;;33.67;20.83;;;10.70;99.90;;;;;;5115979;27;20043;-82
2023/03/21 11:45:32;;;;;;;34.42;22.05;;;10.80;99.90;;;;;;5116176;27;20046;-82
2023/03/21 11:48:01;;;;;;;33.42;22.08;;;10.80;99.90;;;;;;5115937;27;20039;-82
2023/03/21 11:50:32;;;;;;;34.10;14.68;;;10.90;99.90;;;;;;5116187;27;20047;-82
2023/03/21 11:53:27;;;;;;;24.40;12.27;;;10.90;99.90;;;;;;5134397;27;20059;-82
2023/03/21 11:56:14;;;;;;;25.35;14.18;;;10.90;99.90;;;;;;5116023;28;20401;-82
2023/03/21 11:59:04;;;;;;;23.58;12.55;;;10.90;99.90;;;;;;5134389;27;20043;-82
2023/03/21 12:01:51;;;;;;;24.33;12.43;;;10.90;99.90;;;;;;5134381;27;20134;-81
2023/03/21 12:04:35;;;;;;;26.25;13.55;;;10.90;99.90;;;;;;5116312;27;20050;-82
2023/03/21 12:07:34;;;;;;;31.70;13.23;;;10.80;99.90;;;;;;5115603;27;20164;-81
2023/03/21 12:10:14;;;;;;;26.83;13.25;;;10.90;99.90;;;;;;5098166;28;20051;-82
2023/03/21 12:13:08;;;;;;;29.55;14.07;;;10.80;99.90;;;;;;5116202;28;20054;-82
2023/03/21 12:15:59;;;;;;;26.65;13.82;;;10.80;99.90;;;;;;5115873;28;20055;-82
2023/03/21 12:18:58;;;;;;;26.10;13.13;;;10.80;99.90;;;;;;5116048;28;20051;-82
2023/03/21 12:22:10;;;;;;;26.30;14.40;;;10.80;99.90;;;;;;5116036;28;20514;-82
2023/03/21 12:24:40;;;;;;;28.33;15.23;;;10.80;99.90;;;;;;5108654;28;20402;-82
2023/03/21 12:27:33;;;;;;;26.85;14.93;;;10.70;99.90;;;;;;5115692;28;20047;-81
2023/03/21 12:30:31;;;;;;;36.38;16.25;;;10.70;99.90;;;;;;5115703;28;20127;-84
2023/03/21 12:33:17;;;;;;;27.73;15.13;;;10.80;99.90;;;;;;5115857;28;20078;-81
2023/03/21 12:36:05;;;;;;;36.30;17.30;;;10.60;99.90;;;;;;5115665;28;20085;-81
2023/03/21 12:38:45;;;;;;;31.05;17.17;;;10.70;99.90;;;;;;5115690;28;20486;-82
2023/03/21 12:41:16;;;;;;;31.58;15.82;;;10.70;99.90;;;;;;5115700;28;20039;-82
2023/03/21 12:43:52;;;;;;;28.27;16.30;;;10.70;99.90;;;;;;5133970;28;20512;-82
2023/03/21 12:46:21;;;;;;;30.42;18.10;;;10.70;99.90;;;;;;5115802;28;20447;-84
2023/03/21 12:49:00;;;;;;;32.10;18.67;;;10.70;99.90;;;;;;5115415;28;20050;-83
2023/03/21 12:51:31;;;;;;;34.30;17.48;;;10.70;99.90;;;;;;5115560;28;20039;-83
2023/03/21 12:54:11;;;;;;;35.72;19.20;;;10.80;99.90;;;;;;5115481;28;20043;-83